Redwood City, CA (94062)

4:28 AM PDT on October 20, 2014 (GMT -0700)
Skywood | Change Station
CLOSE
Current Station
Personal Weather Station
Location: Woodside, CA
Elevation: 1355 ft
Nearby Weather Stations

Elev 1355 ft 37.39 °N, 122.27 °W | Updated 2 seconds ago

Mostly Cloudy
Mostly Cloudy
55.1 °F
Feels Like 55.1 °F
N
2.2
Wind Variable Wind from WNW
Gusts 2.5 mph

Today
High -- | Low -- °F
--% Chance of Precip.
Yesterday
High -- | Low -- °F
Precip. -- in
7:21 AM 6:25 PM
Waning Crescent, 11% visible
Pressure 29.92 in
Visibility 10.0 miles
Clouds Clear
Dew Point 51 °F
Humidity 85%
Rainfall 0.00 in
Snow Depth Not available.
UV 0 out of 12
Pollen 1.80 out of 12
Air Quality Not available.
Flu Activity Sporadic
METAR KSQL 201115Z AUTO 17003KT 10SM CLR 16/13 A2992 RMK AO2

More Conditions Fewer Conditions

Pressure 29.92 in
Visibility 10.0 miles
Clouds Clear
Dew Point 51 °F
Humidity 85%
Rainfall 0.00 in
Snow Depth Not available.
UV 0 out of 12
Pollen 1.80 out of 12
Air Quality Not available.
Flu Activity Sporadic
METAR KSQL 201115Z AUTO 17003KT 10SM CLR 16/13 A2992 RMK AO2

More Conditions Fewer Conditions

10-Day Weather Forecast

Almanac

Astronomy

Oct. 20, 2014 Rise Set
Actual Time 7:21 AM PDT 6:25 PM PDT
Civil Twilight 6:55 AM PDT 6:51 PM PDT
Nautical Twilight 6:25 AM PDT 7:21 PM PDT
Astronomical Twilight 5:54 AM PDT 7:52 PM PDT
Moon 4:18 AM PDT 4:47 PM PDT
Length of Visible Light 11h 56m
Length of Day
11h 03m
Waning Crescent, 11% of the Moon is Illuminated
Today
Waning Crescent
Oct 23
New
Oct 30
First Quarter
Nov 6
Full
Nov 14
Last Quarter

Today's Extremes

State Highs State Lows

Community

WunderPhotos

Upload Photos

1,763,338 photos uploaded!

Nearby

Air Quality

  Air Quality AQ Index Pollutant
Yesterday Good
OZONE
Yesterday Good
PM2.5
Monday Good
PM2.5
Tuesday Good
PM2.5
Wednesday Good
PM2.5

Snow Depth

Station Depth Elevation
Blue Lakes 0 in 8000 ft
Forestdale Creek 0 in 8029 ft
Echo Peak 1 in 7800 ft
Ebbetts Pass 0 in 8700 ft
Leavitt Lake 1 in 9400 ft

Earthquake Activity

City Distance Mag. Time & Date
Cobb, California 103 miles 2.5 9:25 PM PDT
2014-10-19
Soledad, California 86 miles 2.6 3:21 PM PDT
2014-10-18
East Foothills, California 29 miles 2.6 8:16 AM PDT
2014-10-18
Minimum magnitude displayed is 2.5.

Coastal Water Temperatures

Place Temperature
No Stations Reporting

Nearby Weather Stations